Accueil
METAR-TAF:

METAR-TAF

Aéroports :

Farnborough, Angleterre

latitude: 51-17N, longitude: 000-46W, altitude: 65 m

Observation

Le bulletin a été fait il y a 28 minutes, à 16:20 UTC
Vent 8 kt de est
Température 22°C
Humidité 78%
Pression 1016 hPa
Visibilité 10 km ou plus
Quelques nuages à une hauteur de 2200 ft
Nuages épars à une hauteur de 3500 ft

METAR: EGLF 221620Z 10008KT 9999 FEW022 SCT035 22/18 Q1016

Heure: 17:48 (16:48 UTC)

Prévision

Le bulletin a été fait il y a 2 heures et 52 minutes, à 13:56 UTC
Prévision valable du 22 à 15 UTC au 22 à 21 UTC
Vent 9 kt de est
Visibilité 10 km ou plus
Nuages épars à une hauteur de 2000 ft

TAF: EGLF 221356Z 2215/2221 10009KT 9999 SCT020

Observations et prévisions météorologiques de plus de 4000 aéroports (messages METAR et TAF).

Les stations disponibles sont représentées par des disques jaunes et rouges sur la carte.

Passer la souris dessus pour voir le nom de la station.

Cliquer dessus pour voir les observations et prévisions météorologiques.

Pour changer de carte: cliquez sur les boutons verts avec une croix noire pour zoomer, sur le bouton vert avec un tiret pour effectuer un zoom arrière, ou sur les flèches vertes pour les cartes adjacentes.


METAR-TAF: